Rayford, Texas
Current Conditions -  °F | °C
As of 1:53 PM on Thursday 23 Oct 2014 (Local Time) from KIAH Reporting Station
Scattered Clouds Scattered Clouds  
Wind Chill: 79°   Ceiling: Unl
Heat Index: 80°   Visibility: 10mi
Dew Point: 55°   Wind: 8mph
Humidity: 44%   Direction: 20°NNE
Pressure: 30.1"   Gusts: NA
Location:  30.0613°N, 95.3841°W
Report Text: KIAH 231853Z 02007KT 340V040 10SM SCT140 26/13 A3010 RMK AO2 SLP191 T02610128
Loading
Personal Weather Stations






























Interactive Weather Map New forecast layout! Learn more

10-Day Weather Forecast

Advertisements
Track Severe Weather on mobile